KSEM/SEM METAR and TAF weather

Enter ICAO airport designator
Station Type Date Time Source
KSEM METAR 2023/01/30 10:35 UTC NOAA

KSEM 301035Z AUTO 02004KT 7SM -RA OVC005 15/15 A3009 RMK AO2


Station Type Date Time Source
KSEM Decoded METAR 2023/01/30 10:35 UTC NOAA

Craig Field / Selma, AL, United States (KSEM) 32-21N 086-59W
Jan 30, 2023 - 05:35 AM EST / 2023.01.30 1035 UTC
Wind: from the NNE (020 degrees) at 5 MPH (4 KT):0
Visibility: 7 mile(s):0
Sky conditions: overcast
Weather: light rain
Temperature: 59 F (15 C)
Dew Point: 59 F (15 C)
Relative Humidity: 100%
Pressure (altimeter): 30.09 in. Hg (1018 hPa)
ob: KSEM 301035Z AUTO 02004KT 7SM -RA OVC005 15/15 A3009 RMK AO2
cycle: 10

Station Type Date Time Source
KSEM TAF UTC NOAA

Error!

Example: see airport list